首页
METAR-TAF:

METAR-TAF

机场 :

Boscombe Down, 英格兰

纬度: 51-10N, 经度: 001-45W, 海拔: 124米

当前天气观测

该预报发布于1小时和21分钟前的20:50 UTC
风速16节,风向北转东北
温度 3°C
湿度 65%
气压 1039 hPa
能见度10公里或以上

METAR: EGDM 292050Z AUTO 03016KT 9999 NCD 03/M03 Q1039

时间: 23:11 (22:11 UTC)


TAF: 丢失

超过4000个机场的气象观测和天气预报(METAR&TAF报告)。

可查询的气象台以黄色和红色小点在地图上表示。

将鼠标移到小点上方,可查看气象台名称。

然后点击查看天气观测和预报。

如需切换地图:点击带黑十字的绿色按钮放大地图;点击带横线的绿色按钮缩小地图;或者点击绿色箭头查看邻近地区的地图。


METAR-TAF: